Terminal Aerodrome Forecast
Issued by NWS Charleston, WV

Current Version | Previous Version | Graphics & Text | Print | Product List | Glossary On
Versions: 1 2 3 4 5 6 7 8 9 10 11 12 13 14 15 16 17 18 19 20 21
000
FTUS41 KRLX 261700
TAFHTS
TAF
KHTS 261738Z 2618/2718 28008G15KT 6SM BR OVC011
     FM270100 31006KT 4SM BR BKN010
     FM270400 31004KT 2SM BR BKN012
     FM270500 31004KT 1 1/2SM BR BKN010
     FM271000 33004KT P6SM BKN015=

USA.gov is the U.S. government's official web portal to all federal, state and local government web resources and services.